Time;durP1;ratioP1;P1;durP2;ratioP2;P2;SDS_P1;SDS_P2;PMS_P1;PMS_P2;Temp;Humidity;BMP_temperature;BMP_pressure;BME280_temperature;BME280_humidity;BME280_pressure;Samples;Min_cycle;Max_cycle;Signal;HPM_P1;HPM_P2
2021/01/18 00:01:59;;;;;;;10.93;9.82;;;-2.40;99.90;;;;;;5113031;27;20213;-75
2021/01/18 00:04:26;;;;;;;10.63;9.57;;;-2.40;99.90;;;;;;5109190;27;20452;-75
2021/01/18 00:06:52;;;;;;;10.20;9.20;;;-2.50;99.90;;;;;;5108014;27;20274;-75
2021/01/18 00:09:19;;;;;;;9.15;8.40;;;-2.40;99.90;;;;;;5111187;27;20217;-77
2021/01/18 00:11:45;;;;;;;9.23;8.43;;;-2.40;99.90;;;;;;5105142;27;20289;-75
2021/01/18 00:14:12;;;;;;;9.95;8.95;;;-2.40;99.90;;;;;;5103031;27;20239;-75
2021/01/18 00:16:39;;;;;;;9.63;8.68;;;-2.40;99.90;;;;;;5106041;27;20221;-75
2021/01/18 00:19:06;;;;;;;9.23;8.52;;;-2.40;99.90;;;;;;5094072;27;20270;-75
2021/01/18 00:21:32;;;;;;;9.38;8.40;;;-2.40;99.90;;;;;;5091055;27;21091;-73
2021/01/18 00:23:59;;;;;;;9.10;8.25;;;-2.40;99.90;;;;;;5088760;28;20248;-75
2021/01/18 00:26:25;;;;;;;10.73;9.75;;;-2.40;99.90;;;;;;5081114;28;20221;-75
2021/01/18 00:28:52;;;;;;;11.23;10.13;;;-2.40;99.90;;;;;;5079911;28;20471;-75
2021/01/18 00:31:18;;;;;;;11.02;10.00;;;-2.40;99.90;;;;;;5078701;28;20283;-76
2021/01/18 00:33:47;;;;;;;12.25;10.95;;;-2.50;99.90;;;;;;5077853;28;20222;-74
2021/01/18 00:36:13;;;;;;;15.52;13.55;;;-2.60;99.90;;;;;;5090443;27;20216;-75
2021/01/18 00:38:40;;;;;;;14.30;12.80;;;-2.70;99.90;;;;;;5101778;27;20252;-75
2021/01/18 00:41:06;;;;;;;12.43;11.23;;;-2.90;99.90;;;;;;5098870;28;20224;-75
2021/01/18 00:43:33;;;;;;;13.52;12.32;;;-2.90;99.90;;;;;;5099566;28;20711;-75
2021/01/18 00:45:59;;;;;;;13.38;11.80;;;-3.00;99.90;;;;;;5098977;28;20254;-76
2021/01/18 00:48:26;;;;;;;13.02;11.82;;;-3.00;99.90;;;;;;5099874;28;20216;-75
2021/01/18 00:50:53;;;;;;;13.57;12.13;;;-2.90;99.90;;;;;;5100990;28;20229;-75
2021/01/18 00:53:20;;;;;;;13.13;11.82;;;-2.80;99.90;;;;;;5114853;27;20212;-76
2021/01/18 00:55:47;;;;;;;13.93;12.38;;;-2.70;99.90;;;;;;5103589;27;20232;-75
2021/01/18 00:58:14;;;;;;;13.77;12.38;;;-2.70;99.90;;;;;;5096888;27;20228;-75
2021/01/18 01:00:40;;;;;;;13.23;11.38;;;-2.80;99.90;;;;;;5108513;27;20282;-75
2021/01/18 01:03:07;;;;;;;14.50;13.00;;;-2.80;99.90;;;;;;5110636;27;20225;-75
2021/01/18 01:05:34;;;;;;;13.25;11.95;;;-2.80;99.90;;;;;;5108456;27;20221;-75
2021/01/18 01:08:01;;;;;;;13.75;12.32;;;-2.80;99.90;;;;;;5106949;27;20638;-75
2021/01/18 01:10:31;;;;;;;14.88;13.25;;;-2.80;99.90;;;;;;5110758;27;20221;-76
2021/01/18 01:12:58;;;;;;;14.70;13.10;;;-2.80;99.90;;;;;;5123068;27;20224;-74
2021/01/18 01:15:25;;;;;;;13.75;12.32;;;-2.80;99.90;;;;;;5114745;27;20542;-74
2021/01/18 01:17:51;;;;;;;13.77;12.48;;;-2.90;99.90;;;;;;5104187;27;20213;-74
2021/01/18 01:20:20;;;;;;;12.98;11.63;;;-2.90;99.90;;;;;;5108544;27;20217;-74
2021/01/18 01:22:47;;;;;;;13.25;11.95;;;-3.00;99.90;;;;;;5109591;27;20235;-75
2021/01/18 01:25:16;;;;;;;14.57;12.95;;;-3.00;99.90;;;;;;5107019;27;20274;-74
2021/01/18 01:27:43;;;;;;;13.88;12.18;;;-3.00;99.90;;;;;;5110371;27;20709;-74
2021/01/18 01:30:11;;;;;;;13.65;12.20;;;-3.00;99.90;;;;;;5105788;27;20301;-74
2021/01/18 01:32:39;;;;;;;13.38;12.15;;;-2.90;99.90;;;;;;5098189;27;20220;-74
2021/01/18 01:35:07;;;;;;;13.40;12.05;;;-2.90;99.90;;;;;;5098827;27;20600;-72
2021/01/18 01:37:33;;;;;;;13.00;11.68;;;-2.90;99.90;;;;;;5099561;28;20228;-74
2021/01/18 01:40:00;;;;;;;12.75;11.55;;;-2.80;99.90;;;;;;5096198;28;20220;-74
2021/01/18 01:42:27;;;;;;;11.57;10.38;;;-2.80;99.90;;;;;;5100785;28;20229;-73
2021/01/18 01:44:54;;;;;;;12.35;11.25;;;-2.80;99.90;;;;;;5096734;28;20213;-74
2021/01/18 01:47:26;;;;;;;11.57;10.48;;;-2.80;99.90;;;;;;5107135;28;20221;-74
2021/01/18 01:49:53;;;;;;;12.77;11.57;;;-2.80;99.90;;;;;;5093716;28;20259;-73
2021/01/18 01:52:21;;;;;;;14.27;12.80;;;-2.90;99.90;;;;;;5099394;28;20736;-74
2021/01/18 01:54:52;;;;;;;13.73;12.32;;;-2.90;99.90;;;;;;5099821;28;20213;-74
2021/01/18 01:57:19;;;;;;;12.98;11.77;;;-3.10;99.90;;;;;;5096752;28;20216;-73
2021/01/18 01:59:47;;;;;;;12.77;11.48;;;-3.10;99.90;;;;;;5094359;27;20216;-74
2021/01/18 02:02:14;;;;;;;14.00;12.48;;;-3.20;99.90;;;;;;5100149;28;20236;-74
2021/01/18 02:04:41;;;;;;;11.70;10.50;;;-3.20;99.90;;;;;;5101431;27;20786;-74
2021/01/18 02:07:22;;;;;;;12.15;11.05;;;-3.20;99.90;;;;;;5107036;27;20240;-73
2021/01/18 02:09:49;;;;;;;13.13;11.82;;;-3.10;99.90;;;;;;5106019;27;20222;-73
2021/01/18 02:12:16;;;;;;;14.23;12.07;;;-3.10;99.90;;;;;;5106043;27;20699;-75
2021/01/18 02:14:58;;;;;;;13.75;12.45;;;-3.10;99.90;;;;;;5107468;27;20230;-74
2021/01/18 02:17:35;;;;;;;12.38;11.07;;;-3.20;99.90;;;;;;5105309;27;21088;-74
2021/01/18 02:20:38;;;;;;;12.85;11.55;;;-3.20;99.90;;;;;;5111770;27;20314;-74
2021/01/18 02:23:40;;;;;;;12.45;11.27;;;-3.20;99.90;;;;;;5101023;27;20227;-72
2021/01/18 02:26:11;;;;;;;11.25;10.15;;;-3.10;99.90;;;;;;5104427;27;20630;-75
2021/01/18 02:28:57;;;;;;;12.80;11.52;;;-3.10;99.90;;;;;;5100466;27;20223;-75
2021/01/18 02:31:40;;;;;;;12.05;10.77;;;-3.10;99.90;;;;;;5108861;27;20470;-74
2021/01/18 02:34:40;;;;;;;11.20;10.23;;;-3.00;99.90;;;;;;5103049;27;20220;-74
2021/01/18 02:37:23;;;;;;;12.38;11.18;;;-3.00;99.90;;;;;;5100678;27;20224;-75
2021/01/18 02:40:02;;;;;;;11.63;10.52;;;-2.90;99.90;;;;;;5122279;27;20227;-75
2021/01/18 02:42:33;;;;;;;11.63;10.18;;;-2.90;99.90;;;;;;5105838;27;20223;-75
2021/01/18 02:45:00;;;;;;;12.20;11.00;;;-2.90;99.90;;;;;;5094138;27;20233;-74
2021/01/18 02:47:31;;;;;;;11.40;10.30;;;-2.80;99.90;;;;;;5070153;28;20914;-74
2021/01/18 02:50:00;;;;;;;12.75;11.55;;;-2.80;99.90;;;;;;5070861;28;20646;-76
2021/01/18 02:52:28;;;;;;;11.35;10.20;;;-2.90;99.90;;;;;;5071144;28;20713;-75
2021/01/18 02:54:54;;;;;;;10.65;9.65;;;-3.00;99.90;;;;;;5084281;28;20778;-74
2021/01/18 02:57:23;;;;;;;11.90;10.68;;;-3.00;99.90;;;;;;5084313;28;20217;-75
2021/01/18 02:59:50;;;;;;;12.27;11.07;;;-3.00;99.90;;;;;;5084948;28;20217;-74
2021/01/18 03:02:26;;;;;;;11.45;10.43;;;-3.10;99.90;;;;;;5094615;28;20219;-74
2021/01/18 03:05:17;;;;;;;12.02;10.82;;;-3.10;99.90;;;;;;5096261;28;20906;-72
2021/01/18 03:07:53;;;;;;;13.52;12.23;;;-3.10;99.90;;;;;;5078297;28;20266;-74
2021/01/18 03:10:27;;;;;;;11.82;10.73;;;-3.10;99.90;;;;;;5098065;27;20311;-74
2021/01/18 03:13:01;;;;;;;12.35;10.95;;;-3.20;99.90;;;;;;5103284;27;20224;-72
2021/01/18 03:15:31;;;;;;;13.27;11.88;;;-3.20;99.90;;;;;;5108291;27;20575;-74
2021/01/18 03:18:01;;;;;;;12.25;11.07;;;-3.20;99.90;;;;;;5105918;27;20231;-75
2021/01/18 03:20:28;;;;;;;13.50;11.40;;;-3.10;99.90;;;;;;5109226;27;20232;-75
2021/01/18 03:23:02;;;;;;;12.63;11.32;;;-3.10;99.90;;;;;;5109470;27;20239;-75
2021/01/18 03:25:29;;;;;;;13.38;12.02;;;-3.10;99.90;;;;;;5101331;27;20322;-74
2021/01/18 03:27:57;;;;;;;13.15;11.85;;;-3.10;99.90;;;;;;5101260;27;20213;-75
2021/01/18 03:30:25;;;;;;;12.43;11.13;;;-3.20;99.90;;;;;;5107394;27;20636;-75
2021/01/18 03:32:52;;;;;;;12.73;11.60;;;-3.20;99.90;;;;;;5114866;27;20776;-74
2021/01/18 03:35:21;;;;;;;13.02;11.73;;;-3.30;99.90;;;;;;5106852;27;20220;-74
2021/01/18 03:37:52;;;;;;;13.27;11.98;;;-3.30;99.90;;;;;;5108319;27;20220;-74
2021/01/18 03:40:21;;;;;;;13.13;11.68;;;-3.40;99.90;;;;;;5104689;27;20229;-74
2021/01/18 03:42:56;;;;;;;13.35;12.05;;;-3.50;99.90;;;;;;5109552;27;20225;-74
2021/01/18 03:45:23;;;;;;;13.43;12.13;;;-3.60;99.90;;;;;;5104199;27;20307;-73
2021/01/18 03:47:49;;;;;;;15.23;12.90;;;-3.60;99.90;;;;;;5105970;27;20231;-73
2021/01/18 03:50:16;;;;;;;13.13;11.82;;;-3.50;99.90;;;;;;5110016;27;20224;-74
2021/01/18 03:52:46;;;;;;;13.23;11.75;;;-3.60;99.90;;;;;;5112527;27;20745;-74
2021/01/18 03:55:13;;;;;;;14.32;12.82;;;-3.50;99.90;;;;;;5111603;27;20311;-76
2021/01/18 03:57:40;;;;;;;13.13;11.82;;;-3.50;99.90;;;;;;5113289;27;20549;-74
2021/01/18 04:00:08;;;;;;;14.75;13.15;;;-3.50;99.90;;;;;;5102249;27;20251;-74
2021/01/18 04:02:35;;;;;;;14.18;12.60;;;-3.50;99.90;;;;;;5114435;27;20228;-74
2021/01/18 04:05:02;;;;;;;12.93;11.70;;;-3.50;99.90;;;;;;5109461;27;20220;-75
2021/01/18 04:07:28;;;;;;;12.48;10.77;;;-3.50;99.90;;;;;;5111770;27;20220;-74
2021/01/18 04:09:55;;;;;;;12.65;11.35;;;-3.40;99.90;;;;;;5107748;27;20710;-74
2021/01/18 04:12:21;;;;;;;12.65;11.38;;;-3.50;99.90;;;;;;5112474;27;20246;-73
2021/01/18 04:14:50;;;;;;;11.57;10.48;;;-3.60;99.90;;;;;;5109340;27;20224;-75
2021/01/18 04:17:16;;;;;;;12.40;11.27;;;-3.50;99.90;;;;;;5111016;27;20826;-74
2021/01/18 04:19:43;;;;;;;12.70;11.50;;;-3.50;99.90;;;;;;5105504;27;20222;-73
2021/01/18 04:22:10;;;;;;;13.88;12.48;;;-3.60;99.90;;;;;;5107728;27;20316;-74
2021/01/18 04:24:37;;;;;;;13.57;11.88;;;-3.60;99.90;;;;;;5112331;27;20223;-74
2021/01/18 04:27:06;;;;;;;12.82;11.70;;;-3.60;99.90;;;;;;5118879;27;20224;-74
2021/01/18 04:29:32;;;;;;;12.27;11.07;;;-3.60;99.90;;;;;;5117186;27;20225;-76
2021/01/18 04:32:00;;;;;;;12.60;11.30;;;-3.60;99.90;;;;;;5111939;27;20713;-74
2021/01/18 04:34:26;;;;;;;12.18;11.07;;;-3.50;99.90;;;;;;5103595;28;20216;-72
2021/01/18 04:36:53;;;;;;;12.88;11.57;;;-3.50;99.90;;;;;;5099822;28;20315;-72
2021/01/18 04:39:19;;;;;;;13.20;11.90;;;-3.50;99.90;;;;;;5097276;27;20232;-74
2021/01/18 04:41:47;;;;;;;13.30;11.65;;;-3.50;99.90;;;;;;5100999;27;20243;-74
2021/01/18 04:44:16;;;;;;;12.52;11.32;;;-3.60;99.90;;;;;;5099540;27;20228;-75
2021/01/18 04:46:44;;;;;;;11.82;10.65;;;-3.60;99.90;;;;;;5093681;28;20298;-74
2021/01/18 04:49:13;;;;;;;11.93;10.73;;;-3.60;99.90;;;;;;5102293;28;20731;-75
2021/01/18 04:51:47;;;;;;;13.20;11.90;;;-3.60;99.90;;;;;;5097021;28;20228;-74
2021/01/18 04:54:16;;;;;;;12.02;10.90;;;-3.60;99.90;;;;;;5102461;27;20224;-73
2021/01/18 04:57:10;;;;;;;12.35;11.20;;;-3.60;99.90;;;;;;5109996;27;20220;-75
2021/01/18 04:59:45;;;;;;;12.57;11.27;;;-3.60;99.90;;;;;;5100470;27;20687;-74
2021/01/18 05:02:16;;;;;;;12.02;10.93;;;-3.60;99.90;;;;;;5108225;27;20752;-74
2021/01/18 05:04:45;;;;;;;11.32;10.32;;;-3.60;99.90;;;;;;5099287;27;20228;-74
2021/01/18 05:07:51;;;;;;;10.30;9.40;;;-3.60;99.90;;;;;;5108728;27;20220;-74
2021/01/18 05:10:26;;;;;;;12.05;10.85;;;-3.60;99.90;;;;;;5100997;27;20217;-74
2021/01/18 05:12:57;;;;;;;11.82;10.77;;;-3.60;99.90;;;;;;5112345;27;20769;-74
2021/01/18 05:15:24;;;;;;;11.77;10.68;;;-3.50;99.90;;;;;;5109012;27;20240;-74
2021/01/18 05:17:58;;;;;;;12.55;11.30;;;-3.50;99.90;;;;;;5109657;27;20304;-73
2021/01/18 05:20:26;;;;;;;12.68;11.52;;;-3.40;99.90;;;;;;5111664;27;20275;-74
2021/01/18 05:22:55;;;;;;;11.07;9.98;;;-3.40;99.90;;;;;;5099895;27;20635;-73
2021/01/18 05:25:22;;;;;;;12.05;10.95;;;-3.40;99.90;;;;;;5093266;27;20221;-74
2021/01/18 05:28:03;;;;;;;12.00;9.95;;;-3.40;99.90;;;;;;5097097;28;20229;-74
2021/01/18 05:30:32;;;;;;;11.70;10.50;;;-3.40;99.90;;;;;;5099290;27;20729;-74
2021/01/18 05:33:06;;;;;;;10.68;9.68;;;-3.30;99.90;;;;;;5112070;27;20224;-74
2021/01/18 05:35:35;;;;;;;11.25;10.25;;;-3.30;99.90;;;;;;5106434;27;20241;-75
2021/01/18 05:38:10;;;;;;;11.13;10.07;;;-3.20;99.90;;;;;;5114176;27;20258;-75
2021/01/18 05:40:38;;;;;;;12.40;11.15;;;-3.20;99.90;;;;;;5102515;27;20797;-74
2021/01/18 05:43:05;;;;;;;12.50;11.30;;;-3.30;99.90;;;;;;5074915;28;20222;-72
2021/01/18 05:45:34;;;;;;;11.48;10.38;;;-3.30;99.90;;;;;;5073837;28;20214;-75
2021/01/18 05:48:01;;;;;;;10.93;9.93;;;-3.40;99.90;;;;;;5071307;28;20214;-74
2021/01/18 05:50:29;;;;;;;11.85;10.75;;;-3.40;99.90;;;;;;5066692;28;20363;-73
2021/01/18 05:52:57;;;;;;;10.77;9.68;;;-3.40;99.90;;;;;;5075735;28;20222;-74
2021/01/18 05:55:26;;;;;;;11.13;10.02;;;-3.40;99.90;;;;;;5076088;28;20230;-75
2021/01/18 05:57:54;;;;;;;11.25;10.18;;;-3.30;99.90;;;;;;5073788;28;20217;-74
2021/01/18 06:00:30;;;;;;;10.43;9.52;;;-3.30;99.90;;;;;;5069668;28;20225;-73
2021/01/18 06:02:57;;;;;;;11.20;10.10;;;-3.30;99.90;;;;;;5074111;28;20698;-74
2021/01/18 06:05:25;;;;;;;11.82;10.35;;;-3.30;99.90;;;;;;5075395;28;20232;-73
2021/01/18 06:07:52;;;;;;;11.73;10.63;;;-3.30;99.90;;;;;;5068880;28;20228;-75
2021/01/18 06:10:31;;;;;;;11.00;10.00;;;-3.30;99.90;;;;;;5074770;28;20213;-74
2021/01/18 06:12:58;;;;;;;11.52;10.38;;;-3.30;99.90;;;;;;5081763;28;20221;-75
2021/01/18 06:15:26;;;;;;;13.27;11.98;;;-3.30;99.90;;;;;;5072349;28;20618;-74
2021/01/18 06:17:56;;;;;;;12.77;11.57;;;-3.30;99.90;;;;;;5070154;28;20253;-73
2021/01/18 06:20:24;;;;;;;12.05;10.57;;;-3.30;99.90;;;;;;5068055;28;20228;-74
2021/01/18 06:22:51;;;;;;;12.00;10.82;;;-3.30;99.90;;;;;;5069670;28;20221;-71
2021/01/18 06:25:19;;;;;;;10.85;9.75;;;-3.30;99.90;;;;;;5067097;28;20712;-75
2021/01/18 06:27:46;;;;;;;11.55;10.45;;;-3.30;99.90;;;;;;5071367;28;20217;-75
2021/01/18 06:30:24;;;;;;;11.95;10.63;;;-3.30;99.90;;;;;;5069389;28;20730;-74
2021/01/18 06:32:53;;;;;;;10.60;9.70;;;-3.30;99.90;;;;;;5066823;28;20225;-74
2021/01/18 06:35:25;;;;;;;11.10;10.00;;;-3.30;99.90;;;;;;5072721;28;20229;-74
2021/01/18 06:37:56;;;;;;;11.32;10.23;;;-3.30;99.90;;;;;;5067428;28;20217;-73
2021/01/18 06:40:32;;;;;;;8.88;8.07;;;-3.30;99.90;;;;;;5070288;28;20623;-73
2021/01/18 06:43:00;;;;;;;10.82;9.82;;;-3.30;99.90;;;;;;5070441;28;20236;-77
2021/01/18 06:45:31;;;;;;;10.85;9.75;;;-3.40;99.90;;;;;;5069353;28;20218;-73
2021/01/18 06:47:59;;;;;;;10.80;9.80;;;-3.40;99.90;;;;;;5082478;28;20228;-74
2021/01/18 06:50:30;;;;;;;12.00;10.90;;;-3.40;99.90;;;;;;5093961;28;20267;-75
2021/01/18 06:52:57;;;;;;;10.50;9.60;;;-3.50;99.90;;;;;;5092553;28;20998;-75
2021/01/18 06:55:26;;;;;;;10.75;9.75;;;-3.50;99.90;;;;;;5096217;28;20507;-75
2021/01/18 06:58:23;;;;;;;10.85;9.75;;;-3.50;99.90;;;;;;5093309;28;20260;-74
2021/01/18 07:00:59;;;;;;;11.32;10.30;;;-3.60;99.90;;;;;;5095193;28;20223;-73
2021/01/18 07:03:39;;;;;;;10.07;9.18;;;-3.60;99.90;;;;;;5093713;28;20219;-72
2021/01/18 07:06:24;;;;;;;11.15;10.05;;;-3.50;99.90;;;;;;5107670;28;20262;-73
2021/01/18 07:08:53;;;;;;;11.02;10.07;;;-3.50;99.90;;;;;;5094911;28;20299;-75
2021/01/18 07:11:20;;;;;;;10.95;9.93;;;-3.50;99.90;;;;;;5101371;27;20220;-75
2021/01/18 07:13:50;;;;;;;10.27;9.38;;;-3.50;99.90;;;;;;5109322;27;20823;-73
2021/01/18 07:16:18;;;;;;;11.60;10.43;;;-3.50;99.90;;;;;;5098262;27;20235;-72
2021/01/18 07:18:50;;;;;;;12.85;11.57;;;-3.50;99.90;;;;;;5108171;27;20579;-75
2021/01/18 07:21:18;;;;;;;12.15;11.05;;;-3.40;99.90;;;;;;5110571;27;20870;-74
2021/01/18 07:23:53;;;;;;;11.30;10.27;;;-3.40;99.90;;;;;;5102926;27;20290;-74
2021/01/18 07:26:49;;;;;;;12.45;11.25;;;-3.40;99.90;;;;;;5103625;27;20302;-72
2021/01/18 07:29:19;;;;;;;11.23;10.07;;;-3.30;99.90;;;;;;5096344;28;20668;-74
2021/01/18 07:31:48;;;;;;;11.10;10.13;;;-3.30;99.90;;;;;;5092351;27;20229;-73
2021/01/18 07:34:15;;;;;;;12.45;11.15;;;-3.30;99.90;;;;;;5095764;27;20216;-74
2021/01/18 07:36:43;;;;;;;11.18;10.15;;;-3.20;99.90;;;;;;5097565;27;20216;-73
2021/01/18 07:39:25;;;;;;;11.63;9.60;;;-3.10;99.90;;;;;;5086274;28;20224;-74
2021/01/18 07:41:52;;;;;;;12.30;11.07;;;-3.00;99.90;;;;;;5077353;27;20228;-74
2021/01/18 07:44:35;;;;;;;11.60;10.60;;;-2.90;99.90;;;;;;5075199;28;20226;-75
2021/01/18 07:47:04;;;;;;;12.00;10.88;;;-2.80;99.90;;;;;;5074131;28;20245;-75
2021/01/18 07:49:38;;;;;;;11.75;10.10;;;-2.80;99.90;;;;;;5070878;28;20222;-74
2021/01/18 07:52:19;;;;;;;12.07;10.88;;;-2.70;99.90;;;;;;5068648;28;20229;-75
2021/01/18 07:54:47;;;;;;;11.25;10.25;;;-2.70;99.90;;;;;;5075425;28;20216;-76
2021/01/18 07:57:32;;;;;;;11.13;10.13;;;-2.60;99.90;;;;;;5076114;28;20230;-75
2021/01/18 08:00:27;;;;;;;12.07;10.98;;;-2.60;99.90;;;;;;5079558;28;20222;-75
2021/01/18 08:03:24;;;;;;;10.98;9.90;;;-2.50;99.90;;;;;;5085979;27;20645;-75
2021/01/18 08:06:19;;;;;;;10.75;9.82;;;-2.40;99.90;;;;;;5102722;27;20213;-75
2021/01/18 08:08:46;;;;;;;12.02;10.85;;;-2.40;99.90;;;;;;5124444;27;20306;-76
2021/01/18 08:11:17;;;;;;;14.88;13.45;;;-2.40;99.90;;;;;;5108090;27;20279;-74
2021/01/18 08:14:02;;;;;;;13.75;12.25;;;-2.40;99.90;;;;;;5101959;27;20222;-73
2021/01/18 08:16:42;;;;;;;14.43;12.93;;;-2.40;99.90;;;;;;5104363;27;21713;-73
2021/01/18 08:19:19;;;;;;;14.07;12.65;;;-2.50;99.90;;;;;;5099416;27;20228;-74
2021/01/18 08:21:54;;;;;;;16.98;15.32;;;-2.30;99.90;;;;;;5096475;27;20220;-74
2021/01/18 08:24:52;;;;;;;15.35;13.85;;;-1.60;99.90;;;;;;5095500;27;20212;-74
2021/01/18 08:27:47;;;;;;;16.35;14.88;;;-0.30;99.90;;;;;;5085971;27;20408;-75
2021/01/18 08:30:38;;;;;;;16.50;14.90;;;0.90;99.90;;;;;;5069961;28;20225;-76
2021/01/18 08:33:09;;;;;;;24.42;21.88;;;2.00;99.90;;;;;;5066982;28;20228;-73
2021/01/18 08:35:48;;;;;;;17.95;16.15;;;2.80;99.90;;;;;;5069348;28;20225;-75
2021/01/18 08:38:27;;;;;;;18.27;15.95;;;3.60;99.90;;;;;;5086222;27;20834;-74
2021/01/18 08:41:02;;;;;;;40.85;30.25;;;4.30;99.90;;;;;;5099669;27;20225;-74
2021/01/18 08:43:44;;;;;;;24.48;20.00;;;4.80;99.90;;;;;;5103062;27;20227;-74
2021/01/18 08:46:32;;;;;;;19.65;17.52;;;5.10;99.90;;;;;;5108307;27;20231;-74
2021/01/18 08:49:21;;;;;;;18.27;15.32;;;5.30;99.90;;;;;;5096949;27;20250;-75
2021/01/18 08:51:49;;;;;;;17.30;15.57;;;5.50;99.90;;;;;;5119754;27;20753;-75
2021/01/18 08:54:29;;;;;;;16.52;14.93;;;5.90;99.90;;;;;;5098095;27;20220;-75
2021/01/18 08:57:21;;;;;;;16.70;14.93;;;6.10;99.90;;;;;;5100781;27;20756;-74
2021/01/18 08:59:59;;;;;;;16.92;15.13;;;6.20;99.90;;;;;;5103791;27;20311;-75
2021/01/18 09:02:27;;;;;;;19.08;16.10;;;6.30;99.90;;;;;;5096551;27;20220;-74
2021/01/18 09:04:55;;;;;;;20.30;18.20;;;6.60;99.90;;;;;;5102513;27;20216;-74
2021/01/18 09:07:21;;;;;;;19.23;17.05;;;6.80;99.90;;;;;;5105813;27;20519;-76
2021/01/18 09:09:50;;;;;;;17.95;16.05;;;6.90;99.90;;;;;;5103802;27;20917;-76
2021/01/18 09:12:17;;;;;;;17.17;15.48;;;6.90;99.90;;;;;;5103081;27;20221;-75
2021/01/18 09:14:44;;;;;;;18.65;16.30;;;6.80;99.90;;;;;;5095053;27;20274;-75
2021/01/18 09:17:11;;;;;;;18.80;15.73;;;6.90;99.90;;;;;;5105371;27;20294;-75
2021/01/18 09:19:51;;;;;;;17.30;15.52;;;6.90;99.90;;;;;;5082267;27;20760;-76
2021/01/18 09:22:20;;;;;;;18.50;16.50;;;7.00;99.90;;;;;;5067009;28;20664;-74
2021/01/18 09:24:48;;;;;;;18.75;15.85;;;7.30;99.90;;;;;;5073308;28;20225;-75
2021/01/18 09:27:16;;;;;;;17.38;15.63;;;8.00;99.90;;;;;;5065720;28;20214;-74
2021/01/18 09:29:42;;;;;;;16.58;14.30;;;9.30;99.90;;;;;;5069025;28;20221;-75
2021/01/18 09:32:09;;;;;;;16.67;14.98;;;10.90;99.90;;;;;;5068092;28;20252;-75
2021/01/18 09:34:36;;;;;;;15.60;13.95;;;12.70;99.90;;;;;;5072893;27;20234;-76
2021/01/18 09:37:06;;;;;;;16.58;14.50;;;14.00;96.50;;;;;;5068886;28;20375;-74
2021/01/18 09:39:33;;;;;;;16.17;14.48;;;15.40;90.60;;;;;;5068534;28;20263;-76
2021/01/18 09:42:01;;;;;;;16.92;15.18;;;16.30;87.00;;;;;;5070746;28;20279;-77
2021/01/18 09:44:28;;;;;;;16.00;14.35;;;16.80;83.30;;;;;;5085576;28;20226;-76
2021/01/18 09:46:56;;;;;;;15.75;14.15;;;17.30;79.40;;;;;;5069037;28;20217;-75
2021/01/18 09:49:25;;;;;;;15.02;13.48;;;17.70;77.10;;;;;;5063834;28;20217;-74
2021/01/18 09:51:52;;;;;;;16.35;14.65;;;17.70;72.60;;;;;;5066219;28;20540;-77
2021/01/18 09:54:19;;;;;;;16.02;14.48;;;17.50;73.30;;;;;;5072333;28;20801;-77
2021/01/18 09:56:51;;;;;;;17.63;15.35;;;17.40;72.70;;;;;;5070704;28;20299;-76
2021/01/18 09:59:20;;;;;;;15.73;14.07;;;16.90;73.50;;;;;;5061035;28;20236;-77
2021/01/18 10:01:49;;;;;;;15.68;14.05;;;16.00;75.40;;;;;;5067660;28;20666;-75
2021/01/18 10:04:22;;;;;;;16.75;15.00;;;14.90;77.40;;;;;;5066768;28;20225;-77
2021/01/18 10:06:50;;;;;;;16.80;14.88;;;13.50;80.80;;;;;;5068622;28;20225;-76
2021/01/18 10:09:24;;;;;;;16.50;14.80;;;12.40;84.70;;;;;;5063631;28;20240;-79
2021/01/18 10:11:58;;;;;;;15.75;14.23;;;11.60;88.80;;;;;;5072336;28;20229;-77
2021/01/18 10:14:27;;;;;;;16.67;14.98;;;11.00;90.00;;;;;;5065302;28;20272;-76
2021/01/18 10:17:02;;;;;;;15.35;13.57;;;10.80;91.30;;;;;;5071520;28;20240;-74
2021/01/18 10:19:29;;;;;;;15.80;14.20;;;10.60;91.80;;;;;;5076114;28;20216;-77
2021/01/18 10:21:56;;;;;;;15.55;13.93;;;10.30;92.20;;;;;;5092760;27;20654;-74
2021/01/18 10:24:27;;;;;;;23.13;14.98;;;10.50;93.00;;;;;;5093900;27;20229;-77
2021/01/18 10:27:02;;;;;;;15.10;13.63;;;10.50;92.40;;;;;;5097168;28;20204;-76
2021/01/18 10:29:29;;;;;;;15.88;14.27;;;10.50;92.40;;;;;;5098752;28;20200;-75
2021/01/18 10:31:57;;;;;;;14.90;13.43;;;10.50;92.10;;;;;;5097732;28;20652;-76
2021/01/18 10:34:29;;;;;;;14.13;12.75;;;10.40;92.40;;;;;;5095993;28;20189;-74
2021/01/18 10:36:57;;;;;;;14.85;13.32;;;10.60;92.30;;;;;;5103854;28;20275;-75
2021/01/18 10:39:29;;;;;;;15.82;13.05;;;10.60;92.80;;;;;;5093122;28;20534;-76
2021/01/18 10:42:04;;;;;;;14.40;13.00;;;10.60;92.90;;;;;;5098186;28;20873;-73
2021/01/18 10:44:31;;;;;;;15.00;13.50;;;10.50;93.00;;;;;;5091475;28;20224;-75
2021/01/18 10:46:58;;;;;;;16.52;13.45;;;10.70;93.20;;;;;;5096096;28;20197;-75
2021/01/18 10:49:25;;;;;;;16.23;14.55;;;10.90;92.40;;;;;;5099663;28;20216;-76
2021/01/18 10:52:17;;;;;;;17.08;15.38;;;11.00;92.70;;;;;;5095516;28;20777;-75
2021/01/18 10:54:59;;;;;;;17.65;15.65;;;11.00;91.80;;;;;;5095035;28;20682;-76
2021/01/18 10:57:27;;;;;;;20.13;15.63;;;11.10;91.40;;;;;;5090983;28;20216;-76
2021/01/18 11:00:09;;;;;;;15.88;14.25;;;10.80;91.70;;;;;;5095268;28;20362;-74
2021/01/18 11:02:37;;;;;;;15.90;14.27;;;10.70;92.10;;;;;;5089589;28;20240;-75
2021/01/18 11:05:04;;;;;;;14.85;13.30;;;10.50;92.40;;;;;;5083767;28;20221;-74
2021/01/18 11:07:31;;;;;;;14.98;13.52;;;10.70;93.00;;;;;;5090844;27;20639;-74
2021/01/18 11:09:59;;;;;;;14.57;13.15;;;10.90;92.90;;;;;;5102515;27;20852;-74
2021/01/18 11:12:31;;;;;;;16.30;14.73;;;11.00;92.90;;;;;;5089788;27;20233;-75
2021/01/18 11:14:59;;;;;;;16.70;15.02;;;11.00;92.60;;;;;;5093671;27;20220;-74
2021/01/18 11:17:30;;;;;;;16.00;14.40;;;11.00;92.40;;;;;;5097694;27;20254;-76
2021/01/18 11:20:00;;;;;;;17.63;15.18;;;10.90;92.00;;;;;;5098827;27;20303;-75
2021/01/18 11:22:27;;;;;;;15.77;14.27;;;10.80;92.50;;;;;;5094254;27;20915;-76
2021/01/18 11:24:55;;;;;;;14.95;13.50;;;10.60;92.40;;;;;;5089316;28;20228;-75
2021/01/18 11:27:23;;;;;;;17.63;14.48;;;10.70;92.40;;;;;;5087528;27;20227;-77
2021/01/18 11:29:50;;;;;;;15.85;14.25;;;10.80;92.20;;;;;;5090496;28;20238;-75
2021/01/18 11:32:17;;;;;;;16.88;14.82;;;11.10;92.20;;;;;;5084732;27;20273;-76
2021/01/18 11:34:44;;;;;;;15.65;14.15;;;11.10;92.10;;;;;;5073656;28;20697;-74
2021/01/18 11:37:11;;;;;;;16.35;14.65;;;11.10;92.20;;;;;;5089912;28;20907;-75
2021/01/18 11:39:39;;;;;;;17.50;15.73;;;10.80;92.30;;;;;;5077200;28;20217;-76
2021/01/18 11:42:06;;;;;;;16.45;14.65;;;10.70;93.00;;;;;;5081509;28;20244;-75
2021/01/18 11:44:33;;;;;;;38.92;16.35;;;10.90;96.40;;;;;;5097617;27;20277;-75
2021/01/18 11:47:02;;;;;;;19.50;15.00;;;11.40;95.90;;;;;;5099700;28;20885;-74
2021/01/18 11:49:29;;;;;;;18.85;13.73;;;11.70;96.30;;;;;;5100210;27;20223;-75
2021/01/18 11:51:57;;;;;;;16.77;14.93;;;11.80;93.70;;;;;;5103370;28;20220;-75
2021/01/18 11:54:24;;;;;;;15.60;13.82;;;11.70;93.00;;;;;;5112552;27;20268;-75
2021/01/18 11:56:51;;;;;;;16.63;14.93;;;11.50;93.20;;;;;;5121965;28;20209;-78
2021/01/18 11:59:17;;;;;;;17.88;15.90;;;11.40;93.00;;;;;;5116147;28;20213;-75
2021/01/18 12:01:45;;;;;;;16.40;14.85;;;11.20;92.30;;;;;;5100549;27;20221;-74
2021/01/18 12:04:12;;;;;;;18.60;16.35;;;11.10;92.50;;;;;;5098590;28;20290;-75
2021/01/18 12:06:40;;;;;;;19.45;17.05;;;10.90;92.50;;;;;;5102399;27;20768;-75
2021/01/18 12:09:08;;;;;;;19.58;15.90;;;10.60;92.70;;;;;;5096687;27;20663;-76
2021/01/18 12:11:36;;;;;;;16.30;14.57;;;10.60;92.70;;;;;;5088510;28;20225;-76
2021/01/18 12:14:03;;;;;;;15.95;14.45;;;10.50;92.60;;;;;;5090047;27;20225;-74
2021/01/18 12:16:30;;;;;;;14.98;13.57;;;10.40;93.00;;;;;;5099144;27;20233;-75
2021/01/18 12:18:57;;;;;;;16.90;15.15;;;10.50;92.90;;;;;;5087076;27;20209;-76
2021/01/18 12:21:25;;;;;;;16.17;14.63;;;10.50;93.00;;;;;;5090885;28;20238;-78
2021/01/18 12:23:51;;;;;;;16.17;14.57;;;10.60;93.00;;;;;;5078642;28;20575;-77
2021/01/18 12:26:19;;;;;;;14.85;13.32;;;10.60;92.80;;;;;;5074650;28;20220;-75
2021/01/18 12:28:47;;;;;;;16.17;14.52;;;10.50;92.60;;;;;;5073704;28;20244;-75
2021/01/18 12:31:15;;;;;;;18.73;15.18;;;10.50;92.70;;;;;;5076338;28;20230;-74
2021/01/18 12:33:42;;;;;;;17.67;14.68;;;10.20;92.80;;;;;;5075476;28;20472;-76
2021/01/18 12:36:09;;;;;;;16.48;13.95;;;10.20;93.10;;;;;;5072717;28;20221;-76
2021/01/18 12:38:36;;;;;;;15.48;13.88;;;10.10;92.60;;;;;;5069121;28;20641;-76
2021/01/18 12:41:03;;;;;;;15.27;13.68;;;9.90;93.00;;;;;;5076492;28;20221;-76
2021/01/18 12:43:30;;;;;;;17.83;14.27;;;9.80;93.00;;;;;;5093342;27;20516;-75
2021/01/18 12:46:00;;;;;;;18.02;14.20;;;9.70;93.20;;;;;;5102084;27;20232;-76
2021/01/18 12:48:26;;;;;;;16.08;14.40;;;9.80;93.40;;;;;;5096716;27;20254;-76